Time;durP1;ratioP1;P1;durP2;ratioP2;P2;SDS_P1;SDS_P2;PMS_P1;PMS_P2;Temp;Humidity;BMP_temperature;BMP_pressure;BME280_temperature;BME280_humidity;BME280_pressure;Samples;Min_cycle;Max_cycle;Signal;HPM_P1;HPM_P2
2023/12/15 00:00:20;;;;;;;3.40;1.60;;;18.50;53.00;;;;;;5171610;27;45297;-74
2023/12/15 00:02:47;;;;;;;1.92;1.33;;;18.40;52.90;;;;;;5171355;27;45655;-73
2023/12/15 00:05:14;;;;;;;2.90;1.40;;;18.40;52.90;;;;;;5171163;27;46331;-72
2023/12/15 00:07:42;;;;;;;2.05;1.55;;;18.40;53.00;;;;;;5171001;27;45344;-72
2023/12/15 00:10:09;;;;;;;2.78;1.80;;;18.40;53.00;;;;;;5171116;27;45306;-74
2023/12/15 00:12:36;;;;;;;4.93;1.55;;;18.40;53.00;;;;;;5171349;27;45526;-74
2023/12/15 00:15:03;;;;;;;2.95;1.52;;;18.40;52.90;;;;;;5170778;27;46643;-72
2023/12/15 00:17:30;;;;;;;2.67;1.50;;;18.40;52.90;;;;;;5170990;27;45394;-72
2023/12/15 00:19:57;;;;;;;2.83;1.40;;;18.30;53.00;;;;;;5170899;27;45369;-71
2023/12/15 00:22:24;;;;;;;2.40;1.80;;;18.30;53.00;;;;;;5171134;27;45511;-72
2023/12/15 00:24:52;;;;;;;1.63;1.50;;;18.30;53.10;;;;;;5170062;27;45514;-73
2023/12/15 00:27:19;;;;;;;1.67;1.58;;;18.20;53.10;;;;;;5170721;27;45402;-73
2023/12/15 00:29:46;;;;;;;2.40;1.60;;;18.20;53.20;;;;;;5171054;27;45381;-74
2023/12/15 00:32:13;;;;;;;2.40;1.60;;;18.20;53.10;;;;;;5171066;27;45445;-72
2023/12/15 00:34:40;;;;;;;1.55;1.25;;;18.20;53.20;;;;;;5170626;27;47033;-72
2023/12/15 00:37:07;;;;;;;1.50;1.40;;;18.10;53.10;;;;;;5170332;27;45328;-72
2023/12/15 00:39:36;;;;;;;1.42;1.33;;;18.10;53.10;;;;;;5170676;27;45350;-72
2023/12/15 00:42:05;;;;;;;1.77;1.38;;;18.10;53.10;;;;;;5170895;27;45249;-72
2023/12/15 00:44:33;;;;;;;1.73;1.50;;;18.10;53.10;;;;;;5170362;27;45397;-73
2023/12/15 00:47:00;;;;;;;1.40;1.30;;;18.10;53.10;;;;;;5170353;27;45371;-73
2023/12/15 00:49:27;;;;;;;1.30;1.20;;;18.10;53.10;;;;;;5170653;27;45348;-72
2023/12/15 00:51:54;;;;;;;1.30;1.20;;;18.00;53.00;;;;;;5170759;27;45389;-73
2023/12/15 00:54:21;;;;;;;1.10;1.00;;;18.00;53.10;;;;;;5170039;27;48102;-73
2023/12/15 00:56:48;;;;;;;1.70;1.60;;;18.00;53.10;;;;;;5170221;27;45449;-73
2023/12/15 00:59:17;;;;;;;1.30;1.20;;;18.00;53.10;;;;;;5170322;27;45399;-73
2023/12/15 01:01:44;;;;;;;1.30;1.20;;;17.90;53.10;;;;;;5170582;27;45289;-74
2023/12/15 01:04:10;;;;;;;1.23;1.13;;;17.90;53.10;;;;;;5170009;27;46483;-71
2023/12/15 01:06:37;;;;;;;1.42;1.33;;;17.90;53.10;;;;;;5170103;27;45322;-72
2023/12/15 01:09:04;;;;;;;1.42;1.30;;;17.90;53.10;;;;;;5169465;27;45356;-73
2023/12/15 01:11:31;;;;;;;1.13;1.02;;;17.90;53.10;;;;;;5170209;27;45498;-73
2023/12/15 01:13:58;;;;;;;1.42;1.08;;;17.90;53.00;;;;;;5169983;27;46273;-73
2023/12/15 01:16:26;;;;;;;1.55;1.38;;;17.80;53.00;;;;;;5169805;27;45389;-73
2023/12/15 01:18:53;;;;;;;1.40;1.30;;;17.80;53.00;;;;;;5170184;27;45228;-73
2023/12/15 01:21:20;;;;;;;1.58;1.13;;;17.80;53.00;;;;;;5169574;27;45390;-73
2023/12/15 01:23:47;;;;;;;1.15;1.10;;;17.80;53.60;;;;;;5169473;27;46485;-73
2023/12/15 01:26:13;;;;;;;1.70;1.30;;;17.80;53.00;;;;;;5169934;27;45201;-73
2023/12/15 01:28:40;;;;;;;1.23;1.13;;;17.70;53.00;;;;;;5170055;27;45393;-72
2023/12/15 01:31:07;;;;;;;1.30;1.20;;;17.70;53.00;;;;;;5170044;27;45480;-73
2023/12/15 01:33:35;;;;;;;1.20;1.10;;;17.70;53.00;;;;;;5169667;27;47341;-72
2023/12/15 01:36:02;;;;;;;1.30;1.20;;;17.70;53.00;;;;;;5169659;27;45364;-73
2023/12/15 01:38:29;;;;;;;0.95;0.93;;;17.70;53.00;;;;;;5169445;27;45262;-73
2023/12/15 01:40:56;;;;;;;1.00;1.00;;;17.60;53.00;;;;;;5169960;27;45251;-73
2023/12/15 01:43:23;;;;;;;1.13;1.02;;;17.60;53.00;;;;;;5169560;27;46813;-73
2023/12/15 01:45:50;;;;;;;1.17;1.08;;;17.60;53.00;;;;;;5169480;27;45435;-73
2023/12/15 01:48:16;;;;;;;1.30;1.20;;;17.60;53.00;;;;;;5169594;27;45264;-73
2023/12/15 01:50:45;;;;;;;1.33;1.23;;;17.60;53.00;;;;;;5169667;27;45180;-73
2023/12/15 01:53:11;;;;;;;1.20;1.10;;;17.60;53.00;;;;;;5168611;27;46761;-73
2023/12/15 01:55:38;;;;;;;1.10;0.95;;;17.50;52.90;;;;;;5169394;27;45414;-72
2023/12/15 01:58:05;;;;;;;1.20;1.20;;;17.50;53.00;;;;;;5169560;27;45364;-73
2023/12/15 02:00:32;;;;;;;1.60;1.23;;;17.50;53.00;;;;;;5169588;27;45271;-72
2023/12/15 02:02:59;;;;;;;1.23;1.13;;;17.50;53.00;;;;;;5169368;27;46715;-73
2023/12/15 02:05:26;;;;;;;1.00;1.00;;;17.40;53.00;;;;;;5169653;27;45258;-73
2023/12/15 02:07:54;;;;;;;1.17;1.10;;;17.40;53.00;;;;;;5169313;27;45296;-73
2023/12/15 02:10:21;;;;;;;1.30;1.20;;;17.40;53.00;;;;;;5169657;27;45458;-73
2023/12/15 02:12:47;;;;;;;1.95;1.00;;;17.40;53.00;;;;;;5169094;27;46719;-73
2023/12/15 02:15:14;;;;;;;1.25;1.15;;;17.40;53.00;;;;;;5169187;27;45245;-73
2023/12/15 02:17:42;;;;;;;0.80;0.80;;;17.40;53.00;;;;;;5169170;27;45391;-73
2023/12/15 02:20:10;;;;;;;0.90;0.82;;;17.30;53.00;;;;;;5169449;27;45387;-73
2023/12/15 02:22:38;;;;;;;1.70;1.13;;;17.30;53.00;;;;;;5169024;27;46385;-72
2023/12/15 02:25:05;;;;;;;0.90;0.90;;;17.30;53.00;;;;;;5169082;27;45241;-72
2023/12/15 02:27:33;;;;;;;1.00;1.00;;;17.30;53.00;;;;;;5169162;27;45324;-73
2023/12/15 02:30:00;;;;;;;1.08;1.08;;;17.30;53.00;;;;;;5169434;27;45368;-73
2023/12/15 02:32:27;;;;;;;1.13;1.02;;;17.30;53.00;;;;;;5169260;27;46389;-72
2023/12/15 02:34:54;;;;;;;1.05;1.05;;;17.30;53.00;;;;;;5171838;27;45336;-73
2023/12/15 02:37:20;;;;;;;1.08;0.98;;;17.20;52.90;;;;;;5171966;27;45499;-73
2023/12/15 02:39:49;;;;;;;1.10;1.00;;;17.20;52.90;;;;;;5172841;27;45454;-73
2023/12/15 02:42:15;;;;;;;0.98;0.93;;;17.20;53.00;;;;;;5172384;27;45331;-72
2023/12/15 02:44:44;;;;;;;1.20;1.10;;;17.20;53.00;;;;;;5172394;27;45349;-72
2023/12/15 02:47:10;;;;;;;1.83;1.08;;;17.20;53.00;;;;;;5172597;27;45307;-72
2023/12/15 02:49:39;;;;;;;0.90;0.90;;;17.20;53.00;;;;;;5172721;27;45337;-73
2023/12/15 02:52:06;;;;;;;0.90;0.90;;;17.10;53.00;;;;;;5172471;27;46391;-72
2023/12/15 02:54:33;;;;;;;0.80;0.80;;;17.10;53.00;;;;;;5172261;27;45330;-72
2023/12/15 02:57:01;;;;;;;1.80;1.10;;;17.10;53.00;;;;;;5172334;27;45254;-73
2023/12/15 02:59:28;;;;;;;0.90;0.90;;;17.10;53.00;;;;;;5172719;27;45311;-73
2023/12/15 03:01:55;;;;;;;1.10;1.00;;;17.10;53.00;;;;;;5172006;27;45618;-73
2023/12/15 03:04:21;;;;;;;1.00;0.90;;;17.10;53.00;;;;;;5172027;27;46090;-73
2023/12/15 03:06:48;;;;;;;1.00;0.95;;;17.10;53.00;;;;;;5172177;27;45485;-73
2023/12/15 03:09:15;;;;;;;0.80;0.80;;;17.10;53.60;;;;;;5172378;27;45549;-72
2023/12/15 03:11:42;;;;;;;0.93;0.93;;;17.00;53.00;;;;;;5172046;27;47181;-73
2023/12/15 03:14:10;;;;;;;0.75;0.75;;;17.00;53.00;;;;;;5172352;27;45395;-73
2023/12/15 03:16:37;;;;;;;0.80;0.80;;;17.00;53.00;;;;;;5172226;27;45304;-72
2023/12/15 03:19:04;;;;;;;2.15;0.98;;;17.00;53.30;;;;;;5171663;27;45367;-72
2023/12/15 03:21:31;;;;;;;0.80;0.80;;;16.90;53.00;;;;;;5171541;27;45691;-73
2023/12/15 03:23:58;;;;;;;1.92;0.80;;;16.90;53.60;;;;;;5171925;27;45281;-72
2023/12/15 03:26:24;;;;;;;0.88;0.88;;;16.90;53.00;;;;;;5172011;27;45396;-73
2023/12/15 03:28:51;;;;;;;0.77;0.77;;;16.90;53.00;;;;;;5172124;27;45301;-73
2023/12/15 03:31:20;;;;;;;1.25;1.02;;;16.90;53.00;;;;;;5171648;27;45473;-73
2023/12/15 03:33:46;;;;;;;0.80;0.80;;;16.90;53.70;;;;;;5171667;27;45310;-72
2023/12/15 03:36:16;;;;;;;1.08;0.93;;;16.90;53.00;;;;;;5171638;27;45270;-72
2023/12/15 03:38:43;;;;;;;0.80;0.80;;;16.90;53.10;;;;;;5171311;27;45478;-72
2023/12/15 03:41:12;;;;;;;0.90;0.90;;;16.80;53.10;;;;;;5171642;27;45296;-72
2023/12/15 03:43:39;;;;;;;1.05;0.70;;;16.80;53.10;;;;;;5171599;27;45304;-72
2023/12/15 03:46:06;;;;;;;0.88;0.80;;;16.80;53.10;;;;;;5170975;27;45391;-73
2023/12/15 03:48:34;;;;;;;1.13;0.80;;;16.80;53.10;;;;;;5171784;27;45393;-72
2023/12/15 03:51:01;;;;;;;0.70;0.70;;;16.80;53.70;;;;;;5171600;27;48063;-72
2023/12/15 03:53:28;;;;;;;1.48;1.00;;;16.80;53.60;;;;;;5171411;27;45302;-73
2023/12/15 03:55:55;;;;;;;1.05;0.80;;;16.80;53.10;;;;;;5171396;27;45453;-73
2023/12/15 03:58:22;;;;;;;0.70;0.70;;;16.70;53.60;;;;;;5171628;27;45450;-73
2023/12/15 04:00:48;;;;;;;1.10;1.00;;;16.70;53.70;;;;;;5171043;27;46272;-73
2023/12/15 04:03:15;;;;;;;0.95;0.95;;;16.70;53.00;;;;;;5170485;27;45247;-73
2023/12/15 04:05:43;;;;;;;1.10;1.00;;;16.70;53.00;;;;;;5171288;27;45313;-72
2023/12/15 04:08:10;;;;;;;0.70;0.70;;;16.70;53.00;;;;;;5171205;27;45440;-72
2023/12/15 04:10:39;;;;;;;1.75;0.98;;;16.70;53.10;;;;;;5170935;27;45336;-72
2023/12/15 04:13:06;;;;;;;1.13;1.02;;;16.70;53.10;;;;;;5171287;27;45264;-72
2023/12/15 04:15:32;;;;;;;0.68;0.68;;;16.70;53.10;;;;;;5171030;27;45307;-73
2023/12/15 04:18:02;;;;;;;0.80;0.80;;;16.70;53.10;;;;;;5171287;27;45402;-72
2023/12/15 04:20:29;;;;;;;0.68;0.68;;;16.70;53.10;;;;;;5170851;27;46958;-73
2023/12/15 04:22:57;;;;;;;2.35;1.00;;;16.60;53.10;;;;;;5170838;27;45263;-73
2023/12/15 04:25:24;;;;;;;1.27;0.90;;;16.60;53.10;;;;;;5171157;27;45342;-73
2023/12/15 04:27:51;;;;;;;1.20;1.10;;;16.60;53.60;;;;;;5171129;27;45445;-73
2023/12/15 04:30:18;;;;;;;1.00;0.90;;;16.60;53.10;;;;;;5170627;27;45548;-72
2023/12/15 04:32:45;;;;;;;0.82;0.82;;;16.60;53.10;;;;;;5170731;27;45401;-72
2023/12/15 04:35:11;;;;;;;1.00;0.93;;;16.60;53.10;;;;;;5170672;27;45320;-73
2023/12/15 04:37:38;;;;;;;1.80;0.90;;;16.60;53.10;;;;;;5170533;27;45308;-73
2023/12/15 04:40:08;;;;;;;0.80;0.80;;;16.60;53.10;;;;;;5170699;27;45295;-73
2023/12/15 04:42:35;;;;;;;0.75;0.75;;;16.60;53.10;;;;;;5170472;27;45416;-73
2023/12/15 04:45:02;;;;;;;0.85;0.85;;;16.60;53.10;;;;;;5170755;27;45263;-72
2023/12/15 04:47:28;;;;;;;0.82;0.82;;;16.50;53.10;;;;;;5170024;27;45296;-72
2023/12/15 04:49:55;;;;;;;0.80;0.80;;;16.50;53.10;;;;;;5170271;27;45479;-72
2023/12/15 04:52:22;;;;;;;0.90;0.90;;;16.50;53.10;;;;;;5170352;27;45255;-72
2023/12/15 04:54:49;;;;;;;0.80;0.80;;;16.50;53.10;;;;;;5170775;27;45480;-72
2023/12/15 04:57:17;;;;;;;2.38;0.70;;;16.50;53.10;;;;;;5169386;27;45476;-72
2023/12/15 04:59:44;;;;;;;0.80;0.80;;;16.50;53.20;;;;;;5170224;27;46414;-72
2023/12/15 05:02:10;;;;;;;1.58;0.80;;;16.50;53.20;;;;;;5170210;27;45325;-72
2023/12/15 05:04:37;;;;;;;1.08;0.90;;;16.50;53.10;;;;;;5170361;27;45324;-72
2023/12/15 05:07:04;;;;;;;0.82;0.82;;;16.50;53.10;;;;;;5170267;27;45419;-73
2023/12/15 05:09:31;;;;;;;3.28;1.00;;;16.40;53.20;;;;;;5169961;27;46650;-72
2023/12/15 05:11:58;;;;;;;1.13;0.90;;;16.40;53.20;;;;;;5170282;27;45351;-72
2023/12/15 05:14:26;;;;;;;1.05;0.80;;;16.40;53.20;;;;;;5170376;27;45258;-73
2023/12/15 05:16:53;;;;;;;0.80;0.80;;;16.40;53.20;;;;;;5167632;27;45442;-72
2023/12/15 05:19:20;;;;;;;0.80;0.80;;;16.40;53.20;;;;;;5169980;27;46628;-73
2023/12/15 05:21:47;;;;;;;0.98;0.77;;;16.40;53.20;;;;;;5170129;27;45290;-72
2023/12/15 05:24:15;;;;;;;1.10;1.00;;;16.40;53.20;;;;;;5170069;27;45369;-71
2023/12/15 05:26:42;;;;;;;0.73;0.70;;;16.40;53.20;;;;;;5170188;27;45306;-72
2023/12/15 05:29:10;;;;;;;0.77;0.77;;;16.30;53.20;;;;;;5169296;27;46696;-72
2023/12/15 05:31:38;;;;;;;0.80;0.80;;;16.30;53.10;;;;;;5169274;27;45320;-73
2023/12/15 05:34:05;;;;;;;0.85;0.85;;;16.30;53.20;;;;;;5170219;27;45552;-73
2023/12/15 05:36:32;;;;;;;0.70;0.70;;;16.30;53.20;;;;;;5169830;27;45299;-72
2023/12/15 05:38:59;;;;;;;0.90;0.90;;;16.30;53.20;;;;;;5169466;27;45314;-72
2023/12/15 05:41:26;;;;;;;0.90;0.90;;;16.30;53.20;;;;;;5169692;27;45255;-73
2023/12/15 05:43:53;;;;;;;0.80;0.80;;;16.30;53.30;;;;;;5169766;27;45247;-72
2023/12/15 05:46:20;;;;;;;0.93;0.93;;;16.20;53.30;;;;;;5169690;27;45421;-72
2023/12/15 05:48:48;;;;;;;1.60;0.90;;;16.20;53.30;;;;;;5169367;27;45472;-72
2023/12/15 05:51:15;;;;;;;0.98;0.85;;;16.20;53.30;;;;;;5169342;27;45510;-72
2023/12/15 05:53:42;;;;;;;0.90;0.90;;;16.20;53.30;;;;;;5170017;27;45330;-73
2023/12/15 05:56:09;;;;;;;1.30;0.82;;;16.20;53.30;;;;;;5169401;27;45357;-72
2023/12/15 05:58:36;;;;;;;0.60;0.60;;;16.20;53.40;;;;;;5169327;27;48637;-73
2023/12/15 06:01:03;;;;;;;1.13;0.80;;;16.20;53.40;;;;;;5169171;27;45473;-72
2023/12/15 06:03:30;;;;;;;0.73;0.73;;;16.20;54.00;;;;;;5169256;27;45318;-73
2023/12/15 06:05:58;;;;;;;0.80;0.80;;;16.20;53.40;;;;;;5169525;27;45352;-73
2023/12/15 06:08:25;;;;;;;0.98;0.95;;;16.10;54.00;;;;;;5171043;27;45779;-72
2023/12/15 06:10:52;;;;;;;0.80;0.80;;;16.10;53.40;;;;;;5172752;27;45299;-73
2023/12/15 06:13:18;;;;;;;1.15;0.93;;;16.20;53.40;;;;;;5172319;27;45298;-73
2023/12/15 06:15:45;;;;;;;1.08;0.98;;;16.20;53.30;;;;;;5173246;27;45398;-73
2023/12/15 06:18:12;;;;;;;1.42;0.80;;;16.30;53.80;;;;;;5172657;27;46392;-73
2023/12/15 06:20:39;;;;;;;1.25;1.00;;;16.30;53.00;;;;;;5173063;27;45320;-72
2023/12/15 06:23:07;;;;;;;1.00;1.00;;;16.40;52.90;;;;;;5172978;27;45314;-72
2023/12/15 06:25:34;;;;;;;1.00;0.90;;;16.50;52.70;;;;;;5173221;27;45457;-73
2023/12/15 06:28:01;;;;;;;0.90;0.90;;;16.60;52.50;;;;;;5172629;27;46505;-73
2023/12/15 06:30:28;;;;;;;1.35;0.85;;;16.70;52.30;;;;;;5172819;27;45262;-73
2023/12/15 06:32:54;;;;;;;0.80;0.80;;;16.80;52.10;;;;;;5172805;27;45300;-73
2023/12/15 06:35:21;;;;;;;1.33;1.00;;;17.00;51.90;;;;;;5172885;27;45643;-72
2023/12/15 06:37:50;;;;;;;0.73;0.73;;;17.10;51.50;;;;;;5171944;27;45720;-74
2023/12/15 06:40:18;;;;;;;0.90;0.90;;;17.20;51.30;;;;;;5172399;27;45293;-73
2023/12/15 06:42:45;;;;;;;1.50;0.80;;;17.30;51.00;;;;;;5172474;27;45276;-72
2023/12/15 06:45:12;;;;;;;0.90;0.90;;;17.40;50.80;;;;;;5172714;27;45367;-72
2023/12/15 06:47:38;;;;;;;0.93;0.90;;;17.50;50.70;;;;;;5172187;27;45528;-72
2023/12/15 06:50:06;;;;;;;0.65;0.65;;;17.60;50.60;;;;;;5172153;27;45387;-73
2023/12/15 06:52:33;;;;;;;0.75;0.75;;;17.70;50.40;;;;;;5172554;27;45266;-73
2023/12/15 06:55:00;;;;;;;1.17;0.93;;;17.80;50.20;;;;;;5172380;27;45289;-73
2023/12/15 06:57:29;;;;;;;1.15;0.90;;;17.90;50.10;;;;;;5171361;27;45802;-73
2023/12/15 06:59:56;;;;;;;0.80;0.80;;;17.90;49.90;;;;;;5171940;27;45314;-73
2023/12/15 07:02:23;;;;;;;1.08;0.98;;;18.00;49.70;;;;;;5172335;27;45292;-73
2023/12/15 07:04:49;;;;;;;1.58;0.85;;;18.10;49.60;;;;;;5172355;27;45357;-73
2023/12/15 07:07:16;;;;;;;0.70;0.68;;;18.20;49.40;;;;;;5171871;27;45305;-73
2023/12/15 07:09:43;;;;;;;0.60;0.60;;;18.30;49.80;;;;;;5171982;27;45718;-73
2023/12/15 07:12:10;;;;;;;0.95;0.85;;;18.40;49.10;;;;;;5172383;27;45350;-73
2023/12/15 07:14:38;;;;;;;1.45;0.90;;;18.40;48.90;;;;;;5171776;27;45405;-71
2023/12/15 07:17:05;;;;;;;0.82;0.82;;;18.50;48.80;;;;;;5159276;27;45664;-73
2023/12/15 07:19:32;;;;;;;1.02;1.02;;;18.50;48.60;;;;;;5155224;27;45487;-72
2023/12/15 07:21:59;;;;;;;1.40;0.90;;;18.60;48.50;;;;;;5150387;27;45405;-73
2023/12/15 07:24:26;;;;;;;0.95;0.88;;;18.70;48.50;;;;;;5157807;27;45318;-70
2023/12/15 07:26:53;;;;;;;1.92;1.08;;;18.70;48.30;;;;;;5171396;27;45374;-72
2023/12/15 07:29:21;;;;;;;0.63;0.63;;;18.80;48.30;;;;;;5167406;27;46600;-71
2023/12/15 07:31:50;;;;;;;0.80;0.80;;;18.80;48.20;;;;;;5160206;27;45364;-72
2023/12/15 07:34:17;;;;;;;0.93;0.85;;;18.90;48.20;;;;;;5168947;27;45519;-71
2023/12/15 07:36:44;;;;;;;0.75;0.75;;;18.90;48.10;;;;;;5154612;27;47014;-71
2023/12/15 07:39:11;;;;;;;2.13;0.70;;;19.00;48.00;;;;;;5168920;27;45259;-72
2023/12/15 07:41:39;;;;;;;0.80;0.80;;;19.00;47.80;;;;;;5157755;27;45329;-71
2023/12/15 07:44:06;;;;;;;1.08;1.00;;;19.10;47.80;;;;;;5167642;27;45377;-73
2023/12/15 07:46:34;;;;;;;1.40;1.02;;;19.10;47.70;;;;;;5171082;27;45426;-76
2023/12/15 07:49:02;;;;;;;0.77;0.77;;;19.10;47.60;;;;;;5171173;27;45309;-70
2023/12/15 07:51:29;;;;;;;0.70;0.70;;;19.20;47.50;;;;;;5171207;27;45330;-72
2023/12/15 07:53:56;;;;;;;1.50;0.80;;;19.20;47.50;;;;;;5161779;27;45436;-71
2023/12/15 07:56:24;;;;;;;0.80;0.80;;;19.20;47.40;;;;;;5154599;27;45305;-73
2023/12/15 07:58:51;;;;;;;0.85;0.85;;;19.30;47.40;;;;;;5168943;27;45342;-72
2023/12/15 08:01:18;;;;;;;0.73;0.70;;;19.30;47.30;;;;;;5166993;27;45365;-71
2023/12/15 08:03:45;;;;;;;0.82;0.82;;;19.30;47.10;;;;;;5163778;27;45362;-71
2023/12/15 08:06:13;;;;;;;1.55;0.90;;;19.30;47.10;;;;;;5170550;27;46395;-71
2023/12/15 08:08:40;;;;;;;0.90;0.90;;;19.40;47.00;;;;;;5167378;27;45412;-72
2023/12/15 08:11:07;;;;;;;1.52;0.70;;;19.40;46.90;;;;;;5155280;27;45158;-72
2023/12/15 08:13:34;;;;;;;1.00;0.85;;;19.50;47.50;;;;;;5167188;27;45482;-70
2023/12/15 08:16:01;;;;;;;0.80;0.77;;;19.50;46.80;;;;;;5150652;27;46970;-70
2023/12/15 08:18:27;;;;;;;1.08;0.98;;;19.50;46.80;;;;;;5151108;27;45311;-71
2023/12/15 08:20:54;;;;;;;0.80;0.80;;;19.60;46.70;;;;;;5150146;27;45243;-71
2023/12/15 08:23:22;;;;;;;1.17;0.75;;;19.60;46.60;;;;;;5158081;27;45493;-71
2023/12/15 08:25:49;;;;;;;2.80;1.10;;;19.60;46.60;;;;;;5161843;27;45499;-68
2023/12/15 08:28:18;;;;;;;4.80;1.30;;;19.70;46.80;;;;;;5151544;27;44873;-74
2023/12/15 08:30:45;;;;;;;4.93;1.10;;;19.70;46.40;;;;;;5163021;27;45201;-71
2023/12/15 08:33:12;;;;;;;1.98;1.10;;;19.80;46.40;;;;;;5149806;27;45313;-68
2023/12/15 08:35:39;;;;;;;5.43;1.08;;;19.80;46.20;;;;;;5149387;27;47923;-69
2023/12/15 08:38:06;;;;;;;3.40;2.10;;;19.90;46.40;;;;;;5158812;27;45430;-72
2023/12/15 08:40:34;;;;;;;6.05;1.92;;;20.00;46.80;;;;;;5157881;27;45409;-68
2023/12/15 08:43:02;;;;;;;2.92;2.72;;;20.10;45.90;;;;;;5159674;27;45538;-75
2023/12/15 08:45:29;;;;;;;3.88;2.40;;;20.20;45.80;;;;;;5157489;27;46395;-72
2023/12/15 08:47:56;;;;;;;1.92;1.58;;;20.20;45.70;;;;;;5158929;27;45326;-69
2023/12/15 08:50:23;;;;;;;1.80;1.67;;;20.20;45.80;;;;;;5159093;27;46288;-72
2023/12/15 08:52:50;;;;;;;4.00;1.77;;;20.20;46.30;;;;;;5158093;27;45438;-71
2023/12/15 08:55:17;;;;;;;4.90;1.90;;;20.20;45.80;;;;;;5157561;27;46688;-72
2023/12/15 08:57:45;;;;;;;5.10;1.80;;;20.20;45.80;;;;;;5152929;27;45478;-71
2023/12/15 09:00:13;;;;;;;2.53;1.77;;;20.20;45.90;;;;;;5157193;27;45424;-67
2023/12/15 09:02:40;;;;;;;2.35;1.88;;;20.20;46.00;;;;;;5155642;27;45400;-68
2023/12/15 09:05:07;;;;;;;1.90;1.80;;;20.30;46.30;;;;;;5155880;27;46925;-72
2023/12/15 09:07:34;;;;;;;1.77;1.55;;;20.40;46.80;;;;;;5159651;27;45771;-71
2023/12/15 09:10:02;;;;;;;2.67;2.10;;;20.50;45.70;;;;;;5155509;27;45385;-71
2023/12/15 09:12:29;;;;;;;2.00;1.90;;;20.40;45.50;;;;;;5154825;27;45523;-64
2023/12/15 09:14:57;;;;;;;2.05;1.88;;;20.40;45.60;;;;;;5159258;27;46390;-67
2023/12/15 09:17:24;;;;;;;4.32;2.00;;;20.50;45.70;;;;;;5156689;27;45429;-69
2023/12/15 09:19:51;;;;;;;4.20;1.90;;;20.50;46.30;;;;;;5154736;27;45415;-75
2023/12/15 09:22:18;;;;;;;3.35;2.00;;;20.50;45.50;;;;;;5157799;27;45498;-66
2023/12/15 09:24:45;;;;;;;7.10;2.40;;;20.50;46.30;;;;;;5155227;27;45364;-74
2023/12/15 09:27:12;;;;;;;2.35;1.70;;;20.50;45.90;;;;;;5154594;27;45320;-69
2023/12/15 09:29:38;;;;;;;3.50;1.83;;;20.50;45.90;;;;;;5158047;27;45397;-67
2023/12/15 09:32:07;;;;;;;4.75;4.10;;;20.50;45.80;;;;;;5158856;27;45314;-72
2023/12/15 09:34:34;;;;;;;2.67;2.47;;;20.50;45.90;;;;;;5153716;27;47328;-67
2023/12/15 09:37:00;;;;;;;3.67;2.20;;;20.50;46.10;;;;;;5155965;27;45394;-73
2023/12/15 09:39:27;;;;;;;2.45;2.25;;;20.50;46.10;;;;;;5153716;27;45539;-68
2023/12/15 09:41:53;;;;;;;5.43;2.47;;;20.60;45.90;;;;;;5157804;27;45467;-73
2023/12/15 09:44:20;;;;;;;2.50;2.30;;;20.60;45.90;;;;;;5156338;27;45516;-68
2023/12/15 09:46:47;;;;;;;5.18;2.00;;;20.60;46.00;;;;;;5154751;27;46873;-72
2023/12/15 09:49:17;;;;;;;5.15;2.45;;;20.70;45.80;;;;;;5157514;27;45323;-71
2023/12/15 09:51:45;;;;;;;2.30;2.08;;;20.70;46.00;;;;;;5154397;27;45459;-66
2023/12/15 09:54:11;;;;;;;3.70;2.17;;;20.80;46.20;;;;;;5159355;27;46561;-70
2023/12/15 09:56:38;;;;;;;2.88;2.40;;;20.80;45.70;;;;;;5155190;27;45317;-72
2023/12/15 09:59:05;;;;;;;3.97;2.05;;;20.70;46.10;;;;;;5153352;27;45190;-70
2023/12/15 10:01:32;;;;;;;3.10;2.58;;;20.70;46.20;;;;;;5155103;27;45575;-69
2023/12/15 10:03:59;;;;;;;2.92;2.47;;;20.70;46.10;;;;;;5155702;27;46296;-67
2023/12/15 10:06:27;;;;;;;3.75;2.80;;;20.70;46.10;;;;;;5158460;27;45508;-76
2023/12/15 10:08:54;;;;;;;5.55;2.72;;;20.70;46.00;;;;;;5157379;27;45279;-69
2023/12/15 10:11:21;;;;;;;3.85;2.40;;;20.70;46.10;;;;;;5158727;27;45280;-70
2023/12/15 10:13:49;;;;;;;4.88;2.22;;;20.70;46.10;;;;;;5154374;27;46632;-68
2023/12/15 10:16:15;;;;;;;7.47;2.28;;;20.70;46.70;;;;;;5154657;27;45454;-67
2023/12/15 10:18:42;;;;;;;4.53;2.28;;;20.80;46.20;;;;;;5156480;27;45417;-66
2023/12/15 10:21:09;;;;;;;3.30;2.20;;;20.80;46.20;;;;;;5158155;27;45393;-69
2023/12/15 10:23:37;;;;;;;2.40;2.20;;;20.80;46.60;;;;;;5167193;27;45375;-68
2023/12/15 10:26:04;;;;;;;7.40;2.50;;;20.90;46.80;;;;;;5151252;27;45538;-71
2023/12/15 10:28:35;;;;;;;4.78;2.10;;;20.90;46.90;;;;;;5162599;27;45453;-78
2023/12/15 10:31:02;;;;;;;4.82;2.00;;;20.90;46.80;;;;;;5151415;27;45305;-67
2023/12/15 10:33:29;;;;;;;3.10;2.35;;;20.90;47.00;;;;;;5157859;27;45551;-70
2023/12/15 10:35:57;;;;;;;3.40;1.90;;;20.90;46.60;;;;;;5159375;27;45539;-72
2023/12/15 10:38:24;;;;;;;11.45;2.47;;;20.80;46.40;;;;;;5145177;27;45669;-71
2023/12/15 10:40:52;;;;;;;16.42;3.38;;;20.80;46.30;;;;;;5153461;27;45611;-68
2023/12/15 10:43:21;;;;;;;7.13;2.90;;;20.80;46.50;;;;;;5149904;27;46397;-75
2023/12/15 10:45:47;;;;;;;13.02;2.50;;;20.70;46.50;;;;;;5148695;27;45462;-68
2023/12/15 10:48:14;;;;;;;12.15;3.10;;;20.70;46.10;;;;;;5157684;27;45379;-71
2023/12/15 10:50:42;;;;;;;18.13;3.63;;;20.70;46.40;;;;;;5150790;27;45313;-69
2023/12/15 10:53:08;;;;;;;8.40;2.83;;;20.70;46.90;;;;;;5164211;27;46376;-71
2023/12/15 10:55:35;;;;;;;8.93;2.58;;;20.80;46.60;;;;;;5152142;27;45432;-74
2023/12/15 10:58:06;;;;;;;8.82;3.58;;;20.90;46.80;;;;;;5165293;27;45443;-69
2023/12/15 11:00:33;;;;;;;9.73;4.13;;;21.00;46.60;;;;;;5169886;27;45336;-68
2023/12/15 11:03:00;;;;;;;6.18;4.28;;;21.10;46.30;;;;;;5168152;27;46502;-67
2023/12/15 11:05:27;;;;;;;9.27;3.95;;;21.20;46.40;;;;;;5153174;27;45383;-69
2023/12/15 11:07:54;;;;;;;10.45;4.18;;;21.40;46.30;;;;;;5162393;27;45335;-71
2023/12/15 11:10:21;;;;;;;6.00;3.97;;;21.60;46.20;;;;;;5167774;27;45317;-70
2023/12/15 11:12:49;;;;;;;8.07;3.92;;;21.80;45.80;;;;;;5155662;27;46554;-65
2023/12/15 11:15:18;;;;;;;8.75;4.35;;;21.90;45.40;;;;;;5166995;27;45729;-67
2023/12/15 11:17:48;;;;;;;16.05;4.60;;;22.00;45.40;;;;;;5154874;27;45396;-66
2023/12/15 11:20:39;;;;;;;12.23;4.82;;;22.10;45.10;;;;;;5160440;27;45356;-65
2023/12/15 11:23:07;;;;;;;13.00;5.07;;;22.30;45.20;;;;;;5170445;27;45242;-65
2023/12/15 11:25:35;;;;;;;10.98;3.35;;;22.40;45.10;;;;;;5165507;27;45733;-64
2023/12/15 11:28:07;;;;;;;6.95;3.10;;;22.40;44.00;;;;;;5148467;27;45482;-65
2023/12/15 11:30:37;;;;;;;9.48;3.88;;;22.40;44.40;;;;;;5163168;27;45517;-66
2023/12/15 11:33:41;;;;;;;6.22;4.18;;;22.60;44.50;;;;;;5168997;27;46948;-68
2023/12/15 11:36:08;;;;;;;5.95;4.28;;;22.70;44.30;;;;;;5154938;27;45404;-70
2023/12/15 11:38:35;;;;;;;3.72;3.10;;;22.80;44.20;;;;;;5156585;27;45476;-72
2023/12/15 11:41:02;;;;;;;6.05;4.32;;;22.90;44.10;;;;;;5152825;27;45401;-73
2023/12/15 11:43:31;;;;;;;7.68;3.28;;;23.00;43.90;;;;;;5170722;27;45484;-68
2023/12/15 11:46:00;;;;;;;3.85;2.70;;;23.00;44.00;;;;;;5155530;27;46057;-65
2023/12/15 11:48:27;;;;;;;5.63;2.35;;;23.00;43.60;;;;;;5163507;27;45258;-70
2023/12/15 11:50:53;;;;;;;5.68;2.47;;;23.00;43.60;;;;;;5169112;27;45543;-65
2023/12/15 11:53:20;;;;;;;3.15;2.53;;;23.20;43.60;;;;;;5169841;27;45385;-67
2023/12/15 11:55:49;;;;;;;3.92;2.33;;;23.20;43.60;;;;;;5167976;27;45430;-67
2023/12/15 11:58:17;;;;;;;5.65;2.35;;;23.20;44.20;;;;;;5161023;27;45342;-68
2023/12/15 12:00:44;;;;;;;11.50;2.58;;;23.20;44.20;;;;;;5170269;27;45371;-68
2023/12/15 12:03:13;;;;;;;2.78;1.98;;;23.00;44.20;;;;;;5168951;27;45515;-66
2023/12/15 12:05:41;;;;;;;2.25;1.83;;;22.90;44.30;;;;;;5168325;27;45410;-68
2023/12/15 12:08:11;;;;;;;7.75;2.63;;;22.80;44.50;;;;;;5165498;27;45435;-67
2023/12/15 12:10:39;;;;;;;7.82;2.50;;;22.70;44.70;;;;;;5167697;27;45393;-65
2023/12/15 12:13:06;;;;;;;4.65;2.17;;;22.60;44.70;;;;;;5166025;27;45369;-65
2023/12/15 12:15:33;;;;;;;1.67;1.50;;;22.40;44.70;;;;;;5158608;27;45620;-67
2023/12/15 12:18:00;;;;;;;26.30;4.15;;;22.30;45.20;;;;;;5163755;27;45412;-64
2023/12/15 12:20:29;;;;;;;9.80;2.47;;;22.30;45.50;;;;;;5148692;27;45443;-66
2023/12/15 12:22:55;;;;;;;6.20;1.95;;;22.30;45.80;;;;;;5151125;27;45594;-63
2023/12/15 12:25:22;;;;;;;5.22;1.80;;;22.40;45.60;;;;;;5157978;27;45446;-64
2023/12/15 12:27:51;;;;;;;29.02;3.72;;;22.30;45.00;;;;;;5154899;27;45388;-65
2023/12/15 12:30:18;;;;;;;26.10;3.95;;;22.30;45.30;;;;;;5168569;27;45404;-69
2023/12/15 12:32:46;;;;;;;14.80;3.25;;;22.30;45.90;;;;;;5162490;27;46370;-64
2023/12/15 12:35:13;;;;;;;6.70;1.85;;;22.30;45.90;;;;;;5160621;27;45375;-67
2023/12/15 12:37:42;;;;;;;5.50;1.90;;;22.40;45.70;;;;;;5159632;27;45432;-66
2023/12/15 12:40:11;;;;;;;4.10;1.60;;;22.40;45.90;;;;;;5160521;27;45359;-64
2023/12/15 12:42:38;;;;;;;6.53;1.70;;;22.40;45.80;;;;;;5159152;27;47553;-64
2023/12/15 12:45:07;;;;;;;4.60;1.67;;;22.50;45.80;;;;;;5161680;27;45330;-65